Morning Lady — 3FKC3 — position and weather

sailwx.info

Track history (hours):
 
Tides and Currents Weather Stations Pressure Air Temp Water Temp Dewpoint Dewpoint Depression Visibility Wind Speed Wind Dir Waves Ship Positions

Morning Lady

Last reported at 2016-Aug-25 22:30 UTC. Time now 2016-Aug-26 23:26 UTC.
Position N 22°09' E 119°03'.

Length 234 m; draft 9.7 m.

Type: Ship. MMSI: 356473000.

Date/timePositionNaut miles runAvg speedWind from/ knotsBaromVisibWave heightAir tempDewpointWater temp
2016-Aug-25 22:30N 22°09' E 119°03'5317.8
2016-Aug-25 19:32N 22°51' E 119°38'2416.9
2016-Aug-25 18:06N 23°13' E 119°49'815.4
2016-Aug-25 17:33N 23°21' E 119°49'1615.2
2016-Aug-25 16:30N 23°37' E 119°50'1515.7
2016-Aug-25 15:33N 23°52' E 119°53'1716.9
2016-Aug-25 14:33N 24°07' E 120°01'2317.8
2016-Aug-25 13:16N 24°26' E 120°14'1517.7
2016-Aug-25 12:26N 24°39' E 120°22'1617.4
2016-Aug-25 11:32N 24°52' E 120°32'1717.1
2016-Aug-25 10:31N 25°07' E 120°42'77917.6
2016-Aug-23 14:10N 37°08' E 126°24'813.5
2016-Aug-23 13:33N 37°07' E 126°35'  
Track history (hours):
 
Tides and Currents Weather Stations Pressure Air Temp Water Temp Dewpoint Dewpoint Depression Visibility Wind Speed Wind Dir Waves Ship Positions

Morning Lady

Last reported at 2016-Aug-25 22:30 UTC. Time now 2016-Aug-26 23:26 UTC.
Position N 22°09' E 119°03'.

Length 234 m; draft 9.7 m.

Type: Ship. MMSI: 356473000.

Date/timePositionNaut miles runAvg speedWind from/ knotsBaromVisibWave heightAir tempDewpointWater temp
2016-Aug-25 22:30N 22°09' E 119°03'5317.8
2016-Aug-25 19:32N 22°51' E 119°38'2416.9
2016-Aug-25 18:06N 23°13' E 119°49'815.4
2016-Aug-25 17:33N 23°21' E 119°49'1615.2
2016-Aug-25 16:30N 23°37' E 119°50'1515.7
2016-Aug-25 15:33N 23°52' E 119°53'1716.9
2016-Aug-25 14:33N 24°07' E 120°01'2317.8
2016-Aug-25 13:16N 24°26' E 120°14'1517.7
2016-Aug-25 12:26N 24°39' E 120°22'1617.4
2016-Aug-25 11:32N 24°52' E 120°32'1717.1
2016-Aug-25 10:31N 25°07' E 120°42'77917.6
2016-Aug-23 14:10N 37°08' E 126°24'813.5
2016-Aug-23 13:33N 37°07' E 126°35'  

Dump ship's entire track history